Погода Ибиритена неделю

Минас-Жерайс, Бразилия

24 - 30 апреля
  • 24апреля
    Сегодня
    +19°
    +29°
    Практически безоблачно
    ВремяПогодаТемператураВлажностьДавлениеВетер, м/сВероятность осадков
    00:00Ясно и безоблачно+22°C79 %690 мм2.0 м/с5 %
    03:00Ясно и безоблачно+20°C85 %689 мм1.5 м/с5 %
    06:00Ясно и безоблачно+19°C86 %689 мм1.6 м/с5 %
    09:00Ясно и безоблачно+24°C63 %691 мм0.6 м/с5 %
    12:00Практически безоблачно+27°C49 %691 мм2.2 м/с2 %
    15:00Практически безоблачно+28°C42 %689 мм2.0 м/с2 %
    18:00Облачно с прояснениями+25°C59 %689 мм1.4 м/с5 %
    21:00Практически безоблачно+24°C65 %690 мм1.5 м/с5 %
  • 25апреля
    Четверг
    +17°
    +30°
    Практически безоблачно
    ВремяПогодаТемператураВлажностьДавлениеВетер, м/сВероятность осадков
    00:00Ясно и безоблачно+21°C69 %689 мм1.4 м/с5 %
    03:00Ясно и безоблачно+20°C72 %688 мм1.8 м/с5 %
    06:00Ясно и безоблачно+19°C80 %688 мм1.6 м/с5 %
    09:00Ясно и безоблачно+25°C60 %691 мм1.7 м/с5 %
    12:00Ясно и безоблачно+28°C47 %691 мм2.1 м/с3 %
    15:00Практически безоблачно+29°C43 %690 мм2.4 м/с17 %
    18:00Ясно и безоблачно+25°C63 %690 мм2.5 м/с17 %
    21:00Ясно и безоблачно+23°C72 %690 мм3.4 м/с5 %
  • 26апреля
    Пятница
    +18°
    +29°
    Практически безоблачно
    ВремяПогодаТемператураВлажностьДавлениеВетер, м/сВероятность осадков
    00:00Ясно и безоблачно+21°C77 %690 мм3.2 м/с3 %
    03:00Ясно и безоблачно+19°C87 %689 мм2.2 м/с5 %
    06:00Ясно и безоблачно+18°C91 %690 мм1.9 м/с5 %
    09:00Практически безоблачно+23°C69 %692 мм3.2 м/с5 %
    12:00Практически безоблачно+27°C50 %692 мм3.6 м/с4 %
    15:00Практически безоблачно+29°C46 %690 мм3.4 м/с21 %
    18:00Ясно и безоблачно+24°C65 %690 мм2.8 м/с32 %
    21:00Ясно и безоблачно+23°C74 %691 мм2.4 м/с8 %
  • 27апреля
    Суббота
    +18°
    +29°
    Ясно и безоблачно
    ВремяПогодаТемператураВлажностьДавлениеВетер, м/сВероятность осадков
    00:00Ясно и безоблачно+20°C85 %690 мм3.0 м/с5 %
    03:00Облачно с прояснениями+19°C95 %690 мм3.1 м/с5 %
    06:00Пасмурно, сплошная облачность+19°C94 %690 мм2.9 м/с4 %
    09:00Облачно с прояснениями+23°C73 %692 мм4.1 м/с16 %
    12:00Практически безоблачно+26°C55 %691 мм2.1 м/с4 %
    15:00Ясно и безоблачно+28°C43 %689 мм1.1 м/с29 %
    18:00Ясно и безоблачно+26°C59 %689 мм1.1 м/с38 %
    21:00Ясно и безоблачно+23°C78 %689 мм1.5 м/с10 %
Мы используем cookies
Соглашаюсь